Portada
METAR-TAF:

METAR-TAF

Aeroports :

Kaixan, Iran

latitud: 33-59N, longitud: 051-27E, altitud: 982 m

Observació

L'informe es va fer fa 10 hores i 34 minuts, a les 17:00 UTC
Vent 2 kt del Sud/Sud-Oest
Temperatura 6°C
Humitat 100%
Pressió 1021 hPa
Visibilitat 10 km o més
Escasses núvols a una alçada de 4000 ft
Cel ennuvolat a una alçada de 10000 ft

METAR: OIFK 201700Z 20002KT 9999 FEW040 BKN100 06/06 Q1020 A3014

Hora: 07:04 (03:34 UTC)


TAF: manca

Observacions i pronòstics meteorològics de més de 4000 aeroports (METAR i TAF).

Les estacions disponibles són els punts grocs i vermells al mapa.

Posi el ratolí al punt desitjat per veure el nom de l'estació.

Feu clic per veure les observacions i els pronòstics meteorològics.

Per canviar el mapa: feu clic els botons verds amb una creu de color negre per apropar; al botó verd amb un guió per allunyar la imatge; o en les fletxes verdes per a mapes adjacents.


METAR-TAF: